createdAt,value
2023-01-13T00:04:52.382Z,7.71
2023-01-13T00:09:59.563Z,7.71
2023-01-13T00:15:07.559Z,7.68
2023-01-13T00:20:13.775Z,7.64
2023-01-13T00:25:20.892Z,7.61
2023-01-13T00:30:28.142Z,7.59
2023-01-13T00:35:35.272Z,7.60
2023-01-13T00:40:42.511Z,7.62
2023-01-13T00:45:51.736Z,7.64
2023-01-13T00:51:00.076Z,7.63
2023-01-13T00:56:09.883Z,7.61
2023-01-13T01:01:20.595Z,7.59
2023-01-13T01:06:30.734Z,7.61
2023-01-13T01:11:38.044Z,7.61
2023-01-13T01:16:45.245Z,7.60
2023-01-13T01:21:52.521Z,7.59
2023-01-13T01:26:59.779Z,7.60
2023-01-13T01:32:07.561Z,7.64
2023-01-13T01:37:14.851Z,7.68
2023-01-13T01:42:41.341Z,7.70
2023-01-13T01:47:53.482Z,7.69
2023-01-13T01:53:07.361Z,7.69
2023-01-13T01:58:17.481Z,7.70
2023-01-13T02:03:24.883Z,7.72
2023-01-13T02:08:32.374Z,7.73
2023-01-13T02:13:39.616Z,7.75
2023-01-13T02:19:01.585Z,7.72
2023-01-13T02:24:52.861Z,7.70
2023-01-13T02:30:26.792Z,7.72
2023-01-13T02:35:41.455Z,7.75
2023-01-13T02:40:57.020Z,7.79
2023-01-13T02:46:10.489Z,7.80
2023-01-13T02:51:21.952Z,7.79
2023-01-13T02:56:30.361Z,7.78
2023-01-13T03:01:37.963Z,7.78
2023-01-13T03:06:54.907Z,7.81
2023-01-13T03:12:12.073Z,7.82
2023-01-13T03:17:30.046Z,7.81
2023-01-13T03:22:42.613Z,7.76
2023-01-13T03:27:54.121Z,7.74
2023-01-13T03:33:06.668Z,7.74
2023-01-13T03:38:18.705Z,7.76
2023-01-13T03:43:49.752Z,7.78
2023-01-13T03:48:59.923Z,7.80
2023-01-13T03:54:11.343Z,7.81
2023-01-13T03:59:21.318Z,7.81
2023-01-13T04:04:33.684Z,7.78
2023-01-13T04:09:49.969Z,7.77
2023-01-13T04:15:00.237Z,7.79
2023-01-13T04:20:08.812Z,7.81
2023-01-13T04:25:16.054Z,7.82
2023-01-13T04:30:23.616Z,7.82
2023-01-13T04:35:30.821Z,7.79
2023-01-13T04:40:38.097Z,7.77
2023-01-13T04:45:45.524Z,7.78
2023-01-13T04:50:52.755Z,7.80
2023-01-13T04:55:59.928Z,7.82
2023-01-13T05:01:07.130Z,7.85
2023-01-13T05:06:14.431Z,7.87
2023-01-13T05:11:38.583Z,7.84
2023-01-13T05:17:01.462Z,7.81
2023-01-13T05:22:26.367Z,7.81
2023-01-13T05:27:34.014Z,7.82
2023-01-13T05:32:39.872Z,7.84
2023-01-13T05:37:47.829Z,7.85
2023-01-13T05:43:21.741Z,7.86
2023-01-13T05:48:31.576Z,7.87
2023-01-13T05:53:41.011Z,7.89
2023-01-13T05:58:48.254Z,7.90
2023-01-13T06:03:55.425Z,7.88
2023-01-13T06:09:03.953Z,7.86
2023-01-13T06:14:11.654Z,7.83
2023-01-13T06:19:18.906Z,7.82
2023-01-13T06:24:26.357Z,7.83
2023-01-13T06:29:33.739Z,7.85
2023-01-13T06:34:43.220Z,7.88
2023-01-13T06:39:51.156Z,7.91
2023-01-13T06:44:56.821Z,7.93
2023-01-13T06:50:04.176Z,7.91
2023-01-13T06:55:12.236Z,7.88
2023-01-13T07:00:20.901Z,7.86
2023-01-13T07:05:28.239Z,7.87
2023-01-13T07:10:37.750Z,7.88
2023-01-13T07:15:53.433Z,7.90
2023-01-13T07:21:02.257Z,7.93
2023-01-13T07:26:10.791Z,7.94
2023-01-13T07:31:20.970Z,7.92
2023-01-13T07:36:28.288Z,7.90
2023-01-13T07:41:53.081Z,7.91
2023-01-13T07:47:01.247Z,7.93
2023-01-13T07:52:09.083Z,7.97
2023-01-13T07:57:16.173Z,8.00
2023-01-13T08:02:24.262Z,8.01
2023-01-13T08:07:32.220Z,8.01
2023-01-13T08:12:57.223Z,8.00
2023-01-13T08:18:04.659Z,8.04
2023-01-13T08:23:11.985Z,8.08
2023-01-13T08:28:19.683Z,8.10
2023-01-13T08:33:26.994Z,8.09
2023-01-13T08:38:34.572Z,8.10
2023-01-13T08:43:41.794Z,8.15
2023-01-13T08:48:49.017Z,8.22
2023-01-13T08:53:56.357Z,8.29
2023-01-13T08:59:03.600Z,8.34
2023-01-13T09:04:17.070Z,8.39
2023-01-13T09:09:27.067Z,8.45
2023-01-13T09:14:37.471Z,8.51
2023-01-13T09:19:44.708Z,8.56
2023-01-13T09:24:51.846Z,8.57
2023-01-13T09:29:59.002Z,8.56
2023-01-13T09:35:06.877Z,8.57
2023-01-13T09:40:16.999Z,8.65
2023-01-13T09:45:27.333Z,8.76
2023-01-13T09:50:51.515Z,8.90
2023-01-13T09:55:59.139Z,9.07
2023-01-13T10:01:17.641Z,9.20
2023-01-13T10:06:34.641Z,9.33
2023-01-13T10:12:04.329Z,9.43
2023-01-13T10:17:20.231Z,9.56
2023-01-13T10:22:46.906Z,9.69
2023-01-13T10:27:56.926Z,9.80
2023-01-13T10:33:11.695Z,9.86
2023-01-13T10:38:21.735Z,9.85
2023-01-13T10:43:30.604Z,9.84
2023-01-13T10:48:43.776Z,9.82
2023-01-13T10:53:55.208Z,9.84
2023-01-13T10:59:18.653Z,9.84
2023-01-13T11:04:36.282Z,9.80
2023-01-13T11:09:43.861Z,9.75
2023-01-13T11:14:50.311Z,9.74
2023-01-13T11:20:05.122Z,9.76
2023-01-13T11:25:17.667Z,9.74
2023-01-13T11:30:31.769Z,9.71
2023-01-13T11:35:43.323Z,9.68
2023-01-13T11:40:52.069Z,9.62
2023-01-13T11:46:02.452Z,9.59
2023-01-13T11:51:19.126Z,9.60
2023-01-13T11:56:42.878Z,9.90
2023-01-13T12:02:05.645Z,10.09
2023-01-13T12:07:22.181Z,10.08
2023-01-13T12:12:43.718Z,9.99
2023-01-13T12:18:02.637Z,9.94
2023-01-13T12:23:26.639Z,9.92
2023-01-13T12:28:44.899Z,9.89
2023-01-13T12:33:55.565Z,9.84
2023-01-13T12:39:14.828Z,9.79
2023-01-13T12:44:24.683Z,9.79
2023-01-13T12:49:34.635Z,9.83
2023-01-13T12:55:17.487Z,9.82
2023-01-13T13:00:25.715Z,9.77
2023-01-13T13:06:00.851Z,9.73
2023-01-13T13:11:38.505Z,9.67
2023-01-13T13:16:53.432Z,9.58
2023-01-13T13:22:31.579Z,9.47
2023-01-13T13:27:47.321Z,9.37
2023-01-13T13:33:10.159Z,9.33
2023-01-13T13:38:49.259Z,9.30
2023-01-13T13:44:21.778Z,9.29
2023-01-13T13:49:41.616Z,9.24
2023-01-13T13:54:52.163Z,9.11
2023-01-13T14:00:01.817Z,9.00
2023-01-13T14:05:24.772Z,8.92
2023-01-13T14:10:39.401Z,8.81
2023-01-13T14:15:47.535Z,8.68
2023-01-13T14:20:59.712Z,8.55
2023-01-13T14:26:13.129Z,8.46
2023-01-13T14:31:23.015Z,8.43
2023-01-13T14:36:39.802Z,8.38
2023-01-13T14:41:50.860Z,8.33
2023-01-13T14:47:01.565Z,8.36
2023-01-13T14:52:20.383Z,8.38
2023-01-13T14:57:31.517Z,8.31
2023-01-13T15:02:44.377Z,8.25
2023-01-13T15:07:54.803Z,8.23
2023-01-13T15:13:04.516Z,8.20
2023-01-13T15:18:15.194Z,8.13
2023-01-13T15:23:23.242Z,8.02
2023-01-13T15:28:33.192Z,7.92
2023-01-13T15:33:40.743Z,7.84
2023-01-13T15:38:55.437Z,7.80
2023-01-13T15:44:20.605Z,7.77
2023-01-13T15:49:35.000Z,7.69
2023-01-13T15:54:42.341Z,7.62
2023-01-13T15:59:50.051Z,7.55
2023-01-13T16:04:57.677Z,7.49
2023-01-13T16:10:05.789Z,7.43
2023-01-13T16:15:36.407Z,7.40
2023-01-13T16:20:44.005Z,7.35
2023-01-13T16:25:54.388Z,7.33
2023-01-13T16:31:17.827Z,7.31
2023-01-13T16:36:25.591Z,7.29
2023-01-13T16:41:34.764Z,7.23
2023-01-13T16:46:44.629Z,7.17
2023-01-13T16:51:51.854Z,7.11
2023-01-13T16:56:59.011Z,7.05
2023-01-13T17:02:12.919Z,6.99
2023-01-13T17:07:20.816Z,6.92
2023-01-13T17:12:28.201Z,6.82
2023-01-13T17:17:35.420Z,6.73
2023-01-13T17:22:45.605Z,6.66
2023-01-13T17:27:54.836Z,6.63
2023-01-13T17:33:02.578Z,6.55
2023-01-13T17:38:10.166Z,6.48
2023-01-13T17:43:17.486Z,6.40
2023-01-13T17:48:24.932Z,6.34
2023-01-13T17:53:32.387Z,6.31
2023-01-13T17:58:40.427Z,6.28
2023-01-13T18:03:48.255Z,6.22
2023-01-13T18:08:55.648Z,6.13
2023-01-13T18:14:02.978Z,6.05
2023-01-13T18:19:49.006Z,6.02
2023-01-13T18:25:14.806Z,6.02
2023-01-13T18:30:22.406Z,6.03
2023-01-13T18:35:30.381Z,6.03
2023-01-13T18:40:36.109Z,5.97
2023-01-13T18:45:43.725Z,5.88
2023-01-13T18:50:51.177Z,5.75
2023-01-13T18:55:58.528Z,5.63
2023-01-13T19:01:06.976Z,5.55
2023-01-13T19:06:14.998Z,5.52
2023-01-13T19:11:23.715Z,5.52
2023-01-13T19:16:31.037Z,5.46
2023-01-13T19:21:38.354Z,5.39
2023-01-13T19:26:48.865Z,5.32
2023-01-13T19:31:56.117Z,5.26
2023-01-13T19:37:04.030Z,5.22
2023-01-13T19:42:32.282Z,5.20
2023-01-13T19:47:40.838Z,5.20
2023-01-13T19:52:48.179Z,5.18
2023-01-13T19:57:55.443Z,5.15
2023-01-13T20:03:08.277Z,5.13
2023-01-13T20:08:15.810Z,5.12
2023-01-13T20:13:25.258Z,5.13
2023-01-13T20:18:36.699Z,5.13
2023-01-13T20:23:46.290Z,5.08
2023-01-13T20:28:53.953Z,5.02
2023-01-13T20:34:01.710Z,4.95
2023-01-13T20:39:14.426Z,4.91
2023-01-13T20:44:21.902Z,4.90
2023-01-13T20:49:30.587Z,4.91
2023-01-13T20:54:38.215Z,4.90
2023-01-13T20:59:45.507Z,4.86
2023-01-13T21:04:53.039Z,4.82
2023-01-13T21:10:00.372Z,4.80
2023-01-13T21:15:22.230Z,4.82
2023-01-13T21:20:34.065Z,4.91
2023-01-13T21:25:41.498Z,4.99
2023-01-13T21:30:50.348Z,5.03
2023-01-13T21:35:57.731Z,5.05
2023-01-13T21:41:07.924Z,5.10
2023-01-13T21:46:30.234Z,5.17
2023-01-13T21:51:37.921Z,5.27
2023-01-13T21:56:45.153Z,5.36
2023-01-13T22:02:12.382Z,5.40
2023-01-13T22:07:20.274Z,5.40
2023-01-13T22:12:28.111Z,5.40
2023-01-13T22:17:35.907Z,5.43
2023-01-13T22:22:43.682Z,5.46
2023-01-13T22:27:50.807Z,5.50
2023-01-13T22:32:58.079Z,5.48
2023-01-13T22:38:05.373Z,5.42
2023-01-13T22:43:12.606Z,5.34
2023-01-13T22:48:19.795Z,5.29
2023-01-13T22:53:27.073Z,5.25
2023-01-13T22:58:34.503Z,5.18
2023-01-13T23:03:42.104Z,5.10
2023-01-13T23:08:49.725Z,5.00
2023-01-13T23:14:00.801Z,4.90
2023-01-13T23:19:09.233Z,4.80
2023-01-13T23:24:16.385Z,4.75
2023-01-13T23:29:26.332Z,4.71
2023-01-13T23:34:33.735Z,4.71
2023-01-13T23:39:40.883Z,4.68
2023-01-13T23:44:48.455Z,4.63
2023-01-13T23:49:55.598Z,4.54
2023-01-13T23:55:02.845Z,4.49
